createdAt,value
2022-10-20T00:00:35.018Z,6.75
2022-10-20T00:03:02.972Z,6.71
2022-10-20T00:05:31.000Z,6.73
2022-10-20T00:07:58.835Z,6.74
2022-10-20T00:10:26.736Z,6.70
2022-10-20T00:12:54.746Z,6.65
2022-10-20T00:15:22.707Z,6.68
2022-10-20T00:17:52.200Z,6.62
2022-10-20T00:20:20.103Z,6.70
2022-10-20T00:22:48.148Z,6.79
2022-10-20T00:25:16.320Z,6.75
2022-10-20T00:27:44.202Z,6.70
2022-10-20T00:30:12.451Z,6.78
2022-10-20T00:32:40.295Z,6.70
2022-10-20T00:35:10.189Z,6.75
2022-10-20T00:37:38.046Z,6.66
2022-10-20T00:40:06.357Z,6.64
2022-10-20T00:42:34.682Z,6.67
2022-10-20T00:45:03.293Z,6.66
2022-10-20T00:47:37.009Z,6.65
2022-10-20T00:50:08.555Z,6.61
2022-10-20T00:52:38.498Z,6.68
2022-10-20T00:55:07.727Z,6.71
2022-10-20T00:57:36.281Z,6.67
2022-10-20T01:00:05.437Z,6.63
2022-10-20T01:02:33.497Z,6.63
2022-10-20T01:05:01.673Z,6.66
2022-10-20T01:07:29.599Z,6.62
2022-10-20T01:09:58.821Z,6.56
2022-10-20T01:12:29.402Z,6.56
2022-10-20T01:15:01.654Z,6.60
2022-10-20T01:17:36.323Z,6.56
2022-10-20T01:20:23.350Z,6.55
2022-10-20T01:23:03.617Z,6.50
2022-10-20T01:25:40.869Z,6.49
2022-10-20T01:28:14.819Z,6.50
2022-10-20T01:30:45.943Z,6.52
2022-10-20T01:33:19.491Z,6.47
2022-10-20T01:35:53.739Z,6.46
2022-10-20T01:38:24.523Z,6.45
2022-10-20T01:40:55.594Z,6.39
2022-10-20T01:43:26.568Z,6.42
2022-10-20T01:45:55.465Z,6.39
2022-10-20T01:48:26.269Z,6.49
2022-10-20T01:50:54.237Z,6.45
2022-10-20T01:53:22.285Z,6.50
2022-10-20T01:55:51.761Z,6.41
2022-10-20T01:58:35.270Z,6.40
2022-10-20T02:01:08.362Z,6.40
2022-10-20T02:03:42.440Z,6.34
2022-10-20T02:06:17.655Z,6.41
2022-10-20T02:08:47.490Z,6.31
2022-10-20T02:11:20.881Z,6.31
2022-10-20T02:13:50.953Z,6.33
2022-10-20T02:16:21.438Z,6.37
2022-10-20T02:18:49.721Z,6.37
2022-10-20T02:21:17.856Z,6.41
2022-10-20T02:23:48.024Z,6.37
2022-10-20T02:26:17.200Z,6.37
2022-10-20T02:28:48.004Z,6.41
2022-10-20T02:31:17.809Z,6.31
2022-10-20T02:33:46.651Z,6.37
2022-10-20T02:36:17.626Z,6.36
2022-10-20T02:38:45.771Z,6.43
2022-10-20T02:41:13.939Z,6.48
2022-10-20T02:43:42.141Z,6.43
2022-10-20T02:46:10.283Z,6.38
2022-10-20T02:48:39.576Z,6.52
2022-10-20T02:51:07.719Z,6.53
2022-10-20T02:53:35.706Z,6.51
2022-10-20T02:56:03.868Z,6.49
2022-10-20T02:58:31.738Z,6.48
2022-10-20T03:00:59.656Z,6.42
2022-10-20T03:03:27.595Z,6.41
2022-10-20T03:05:56.899Z,6.49
2022-10-20T03:08:25.059Z,6.43
2022-10-20T03:10:52.948Z,6.53
2022-10-20T03:13:20.863Z,6.51
2022-10-20T03:15:49.680Z,6.50
2022-10-20T03:18:17.564Z,6.48
2022-10-20T03:20:45.622Z,6.51
2022-10-20T03:23:17.754Z,6.49
2022-10-20T03:25:48.372Z,6.36
2022-10-20T03:28:16.259Z,6.42
2022-10-20T03:30:46.385Z,6.39
2022-10-20T03:33:14.318Z,6.32
2022-10-20T03:35:42.128Z,6.30
2022-10-20T03:38:09.933Z,6.30
2022-10-20T03:40:39.103Z,6.42
2022-10-20T03:43:07.070Z,6.38
2022-10-20T03:45:34.896Z,6.42
2022-10-20T03:48:02.701Z,6.41
2022-10-20T03:50:30.585Z,6.42
2022-10-20T03:52:58.866Z,6.33
2022-10-20T03:55:26.938Z,6.31
2022-10-20T03:57:56.234Z,6.39
2022-10-20T04:00:24.120Z,6.37
2022-10-20T04:02:53.087Z,6.39
2022-10-20T04:05:21.634Z,6.45
2022-10-20T04:07:49.889Z,6.38
2022-10-20T04:10:18.147Z,6.37
2022-10-20T04:12:46.085Z,6.39
2022-10-20T04:15:15.250Z,6.35
2022-10-20T04:17:43.194Z,6.39
2022-10-20T04:20:11.467Z,6.43
2022-10-20T04:22:40.431Z,6.44
2022-10-20T04:25:08.712Z,6.47
2022-10-20T04:27:36.844Z,6.53
2022-10-20T04:30:05.256Z,6.52
2022-10-20T04:32:34.592Z,6.50
2022-10-20T04:35:02.422Z,6.47
2022-10-20T04:37:30.324Z,6.50
2022-10-20T04:39:58.556Z,6.52
2022-10-20T04:42:26.489Z,6.58
2022-10-20T04:44:54.518Z,6.56
2022-10-20T04:47:22.563Z,6.57
2022-10-20T04:49:51.807Z,6.56
2022-10-20T04:52:20.883Z,6.56
2022-10-20T04:54:48.832Z,6.67
2022-10-20T04:57:16.911Z,6.66
2022-10-20T04:59:44.745Z,6.69
2022-10-20T05:02:12.638Z,6.65
2022-10-20T05:04:40.667Z,6.67
2022-10-20T05:07:10.029Z,6.68
2022-10-20T05:09:38.129Z,6.68
2022-10-20T05:12:06.295Z,6.74
2022-10-20T05:14:34.273Z,6.73
2022-10-20T05:17:04.228Z,6.73
2022-10-20T05:19:34.719Z,6.77
2022-10-20T05:22:03.015Z,6.81
2022-10-20T05:24:32.479Z,6.85
2022-10-20T05:27:00.394Z,6.91
2022-10-20T05:29:28.400Z,6.88
2022-10-20T05:31:56.334Z,6.94
2022-10-20T05:34:24.482Z,6.92
2022-10-20T05:36:53.496Z,6.85
2022-10-20T05:39:21.544Z,6.81
2022-10-20T05:41:51.155Z,6.84
2022-10-20T05:44:21.426Z,6.96
2022-10-20T05:46:52.152Z,6.93
2022-10-20T05:49:20.209Z,6.91
2022-10-20T05:51:50.107Z,6.88
2022-10-20T05:54:18.189Z,6.98
2022-10-20T05:56:46.058Z,6.96
2022-10-20T05:59:15.308Z,6.92
2022-10-20T06:01:49.033Z,6.92
2022-10-20T06:04:17.895Z,6.83
2022-10-20T06:06:48.820Z,6.81
2022-10-20T06:09:17.144Z,6.86
2022-10-20T06:11:47.220Z,6.88
2022-10-20T06:14:17.275Z,6.85
2022-10-20T06:16:46.127Z,6.93
2022-10-20T06:19:14.327Z,6.98
2022-10-20T06:21:44.698Z,6.89
2022-10-20T06:24:12.838Z,6.94
2022-10-20T06:26:41.057Z,6.93
2022-10-20T06:29:11.038Z,6.93
2022-10-20T06:31:41.339Z,6.99
2022-10-20T06:34:12.590Z,7.08
2022-10-20T06:36:43.027Z,7.13
2022-10-20T06:39:18.631Z,7.24
2022-10-20T06:41:48.565Z,7.29
2022-10-20T06:44:17.280Z,7.33
2022-10-20T06:46:49.177Z,7.41
2022-10-20T06:49:17.152Z,7.52
2022-10-20T06:51:45.761Z,7.54
2022-10-20T06:54:14.112Z,7.61
2022-10-20T06:56:43.339Z,7.65
2022-10-20T06:59:11.196Z,7.68
2022-10-20T07:01:40.187Z,7.77
2022-10-20T07:04:11.466Z,7.93
2022-10-20T07:06:40.495Z,8.01
2022-10-20T07:09:11.352Z,8.03
2022-10-20T07:11:39.450Z,8.20
2022-10-20T07:14:07.321Z,8.34
2022-10-20T07:16:36.147Z,8.42
2022-10-20T07:19:04.889Z,8.45
2022-10-20T07:21:38.200Z,8.50
2022-10-20T07:24:09.507Z,8.61
2022-10-20T07:26:38.943Z,8.71
2022-10-20T07:29:06.862Z,8.72
2022-10-20T07:31:36.266Z,8.75
2022-10-20T07:34:07.369Z,8.87
2022-10-20T07:36:43.825Z,9.00
2022-10-20T07:39:14.036Z,9.18
2022-10-20T07:41:44.055Z,9.40
2022-10-20T07:44:12.559Z,9.47
2022-10-20T07:46:40.450Z,9.64
2022-10-20T07:49:39.160Z,9.92
2022-10-20T07:51:58.267Z,10.04
2022-10-20T07:54:26.128Z,10.11
2022-10-20T07:56:53.960Z,10.18
2022-10-20T07:59:21.896Z,10.36
2022-10-20T08:01:49.767Z,10.45
2022-10-20T08:04:17.819Z,11.28
2022-10-20T08:06:47.159Z,12.04
2022-10-20T08:09:18.365Z,12.35
2022-10-20T08:11:46.256Z,13.18
2022-10-20T08:14:14.225Z,13.25
2022-10-20T08:16:53.479Z,14.10
2022-10-20T08:22:12.942Z,15.95
2022-10-20T08:24:42.086Z,16.53
2022-10-20T08:27:09.943Z,16.90
2022-10-20T08:29:38.115Z,16.89
2022-10-20T08:32:06.264Z,16.78
2022-10-20T08:34:34.335Z,16.75
2022-10-20T08:37:02.183Z,16.18
2022-10-20T08:39:30.081Z,14.87
2022-10-20T08:42:14.935Z,14.59
2022-10-20T08:44:45.363Z,14.71
2022-10-20T08:47:17.368Z,14.91
2022-10-20T08:49:45.845Z,15.33
2022-10-20T08:52:15.582Z,15.43
2022-10-20T08:54:43.759Z,14.78
2022-10-20T08:57:21.837Z,14.94
2022-10-20T08:59:51.789Z,15.29
2022-10-20T09:02:19.607Z,15.38
2022-10-20T09:04:49.149Z,15.81
2022-10-20T09:07:22.013Z,16.50
2022-10-20T09:09:50.183Z,17.59
2022-10-20T09:12:19.890Z,18.44
2022-10-20T09:14:47.900Z,19.36
2022-10-20T09:17:17.512Z,20.14
2022-10-20T09:19:47.343Z,21.45
2022-10-20T09:22:15.835Z,22.63
2022-10-20T09:24:44.618Z,24.18
2022-10-20T09:27:24.200Z,25.52
2022-10-20T09:29:52.212Z,26.31
2022-10-20T09:35:18.819Z,24.31
2022-10-20T09:37:53.624Z,22.70
2022-10-20T09:40:21.907Z,20.63
2022-10-20T09:42:54.266Z,19.11
2022-10-20T09:45:24.008Z,18.00
2022-10-20T09:47:53.268Z,16.91
2022-10-20T09:50:24.674Z,15.86
2022-10-20T09:52:53.275Z,15.18
2022-10-20T09:55:24.580Z,15.25
2022-10-20T09:57:54.612Z,15.21
2022-10-20T10:00:36.198Z,15.14
2022-10-20T10:03:22.797Z,15.25
2022-10-20T10:05:52.535Z,15.16
2022-10-20T10:08:21.050Z,15.15
2022-10-20T10:10:59.263Z,15.45
2022-10-20T10:13:30.127Z,15.62
2022-10-20T10:16:02.568Z,15.50
2022-10-20T10:18:31.456Z,15.78
2022-10-20T10:21:00.635Z,15.52
2022-10-20T10:23:29.395Z,15.19
2022-10-20T10:26:00.626Z,15.15
2022-10-20T10:28:34.210Z,14.91
2022-10-20T10:31:10.054Z,14.77
2022-10-20T10:33:38.182Z,14.71
2022-10-20T10:36:08.476Z,14.59
2022-10-20T10:38:37.217Z,14.56
2022-10-20T10:41:10.592Z,14.54
2022-10-20T10:43:47.816Z,14.68
2022-10-20T10:46:19.938Z,14.76
2022-10-20T10:49:00.729Z,14.88
2022-10-20T10:51:33.627Z,14.86
2022-10-20T10:54:11.845Z,15.02
2022-10-20T10:56:44.620Z,15.14
2022-10-20T10:59:16.814Z,15.28
2022-10-20T11:01:53.376Z,15.58
2022-10-20T11:04:36.940Z,15.98
2022-10-20T11:07:08.686Z,16.20
2022-10-20T11:09:42.335Z,16.20
2022-10-20T11:12:19.342Z,16.24
2022-10-20T11:14:56.915Z,16.03
2022-10-20T11:17:33.420Z,16.14
2022-10-20T11:20:10.006Z,16.14
2022-10-20T11:22:39.893Z,16.03
2022-10-20T11:25:13.523Z,15.85
2022-10-20T11:27:42.438Z,15.78
2022-10-20T11:30:18.227Z,15.71
2022-10-20T11:32:56.579Z,15.52
2022-10-20T11:35:29.007Z,15.41
2022-10-20T11:38:03.870Z,15.35
2022-10-20T11:40:33.072Z,15.38
2022-10-20T11:43:08.817Z,15.39
2022-10-20T11:45:43.823Z,15.33
2022-10-20T11:48:16.457Z,15.21
2022-10-20T11:50:50.084Z,15.27
2022-10-20T11:53:28.402Z,15.34
2022-10-20T11:56:07.372Z,15.48
2022-10-20T11:58:42.586Z,15.54
2022-10-20T12:01:24.268Z,15.60
2022-10-20T12:04:25.440Z,15.61
2022-10-20T12:07:01.160Z,15.61
2022-10-20T12:09:42.558Z,15.67
2022-10-20T12:12:13.049Z,15.55
2022-10-20T12:14:43.104Z,15.39
2022-10-20T12:17:28.610Z,15.27
2022-10-20T12:20:11.565Z,15.08
2022-10-20T12:22:43.990Z,14.93
2022-10-20T12:25:38.059Z,14.71
2022-10-20T12:28:21.017Z,14.49
2022-10-20T12:30:54.999Z,14.30
2022-10-20T12:33:35.950Z,14.11
2022-10-20T12:36:14.794Z,13.96
2022-10-20T12:38:45.518Z,13.77
2022-10-20T12:41:24.578Z,13.71
2022-10-20T12:43:54.210Z,13.60
2022-10-20T12:46:27.683Z,13.46
2022-10-20T12:48:59.893Z,13.44
2022-10-20T12:51:36.042Z,13.31
2022-10-20T12:54:09.256Z,13.23
2022-10-20T12:56:41.886Z,13.21
2022-10-20T12:59:21.514Z,13.18
2022-10-20T13:02:08.064Z,13.11
2022-10-20T13:04:55.366Z,13.07
2022-10-20T13:07:38.522Z,13.05
2022-10-20T13:13:24.010Z,13.19
2022-10-20T13:15:53.591Z,13.21
2022-10-20T13:18:26.934Z,13.35
2022-10-20T13:20:57.158Z,13.46
2022-10-20T13:23:26.906Z,13.56
2022-10-20T13:25:56.931Z,13.69
2022-10-20T13:28:28.477Z,13.73
2022-10-20T13:31:08.316Z,13.62
2022-10-20T13:34:02.687Z,13.52
2022-10-20T13:36:37.076Z,13.34
2022-10-20T13:39:12.761Z,13.52
2022-10-20T13:41:45.848Z,13.61
2022-10-20T13:44:29.128Z,13.66
2022-10-20T13:47:04.970Z,13.67
2022-10-20T13:49:41.882Z,13.78
2022-10-20T13:52:14.585Z,13.86
2022-10-20T13:54:45.074Z,13.97
2022-10-20T13:57:25.648Z,14.16
2022-10-20T13:59:59.824Z,14.51
2022-10-20T14:02:29.039Z,14.93
2022-10-20T14:05:04.096Z,15.59
2022-10-20T14:07:39.707Z,15.93
2022-10-20T14:10:09.439Z,15.74
2022-10-20T14:12:37.962Z,15.68
2022-10-20T14:15:20.233Z,15.71
2022-10-20T14:17:55.996Z,15.55
2022-10-20T14:20:24.436Z,15.61
2022-10-20T14:22:54.358Z,15.65
2022-10-20T14:25:28.579Z,15.56
2022-10-20T14:27:57.715Z,15.36
2022-10-20T14:30:27.909Z,15.60
2022-10-20T14:32:58.235Z,16.06
2022-10-20T14:35:30.054Z,16.37
2022-10-20T14:38:03.305Z,16.52
2022-10-20T14:40:32.952Z,16.87
2022-10-20T14:43:03.102Z,17.20
2022-10-20T14:48:02.101Z,17.26
2022-10-20T14:50:34.874Z,17.17
2022-10-20T14:53:30.417Z,17.34
2022-10-20T14:56:00.627Z,17.12
2022-10-20T14:58:30.871Z,16.82
2022-10-20T15:01:16.277Z,16.67
2022-10-20T15:03:44.749Z,16.49
2022-10-20T15:06:16.922Z,16.39
2022-10-20T15:08:58.057Z,16.25
2022-10-20T15:11:28.228Z,16.20
2022-10-20T15:13:59.040Z,16.14
2022-10-20T15:16:43.501Z,15.98
2022-10-20T15:19:13.488Z,15.85
2022-10-20T15:21:42.453Z,15.67
2022-10-20T15:24:10.516Z,15.71
2022-10-20T15:26:38.576Z,15.69
2022-10-20T15:29:07.960Z,15.76
2022-10-20T15:34:12.339Z,15.72
2022-10-20T15:36:42.266Z,15.70
2022-10-20T15:39:12.091Z,15.68
2022-10-20T15:41:43.230Z,15.64
2022-10-20T15:44:16.125Z,15.60
2022-10-20T15:46:45.884Z,15.56
2022-10-20T15:49:17.964Z,15.45
2022-10-20T15:51:47.018Z,15.43
2022-10-20T15:54:18.820Z,15.51
2022-10-20T15:56:47.059Z,15.44
2022-10-20T15:59:15.108Z,15.40
2022-10-20T16:01:43.390Z,15.36
2022-10-20T16:04:18.746Z,15.37
2022-10-20T16:06:47.118Z,15.29
2022-10-20T16:09:21.369Z,15.23
2022-10-20T16:11:50.121Z,15.27
2022-10-20T16:14:22.695Z,15.20
2022-10-20T16:16:51.235Z,15.16
2022-10-20T16:19:20.782Z,15.10
2022-10-20T16:21:48.899Z,15.02
2022-10-20T16:24:16.856Z,14.95
2022-10-20T16:26:44.831Z,14.88
2022-10-20T16:29:20.489Z,14.76
2022-10-20T16:31:49.320Z,14.77
2022-10-20T16:34:17.289Z,14.67
2022-10-20T16:36:52.825Z,14.59
2022-10-20T16:39:21.071Z,14.59
2022-10-20T16:41:49.262Z,14.50
2022-10-20T16:44:17.249Z,14.42
2022-10-20T16:46:53.513Z,14.28
2022-10-20T16:49:21.882Z,14.29
2022-10-20T16:51:51.805Z,14.14
2022-10-20T16:54:20.151Z,14.07
2022-10-20T16:56:52.560Z,14.12
2022-10-20T16:59:20.924Z,13.94
2022-10-20T17:01:48.961Z,13.86
2022-10-20T17:04:17.348Z,13.88
2022-10-20T17:06:45.494Z,13.80
2022-10-20T17:09:15.105Z,13.83
2022-10-20T17:11:45.278Z,13.89
2022-10-20T17:14:13.620Z,13.75
2022-10-20T17:16:42.352Z,13.63
2022-10-20T17:19:11.534Z,13.76
2022-10-20T17:21:39.828Z,13.56
2022-10-20T17:24:13.715Z,13.57
2022-10-20T17:26:43.492Z,13.65
2022-10-20T17:29:12.035Z,13.62
2022-10-20T17:31:40.303Z,13.56
2022-10-20T17:34:08.399Z,13.65
2022-10-20T17:36:36.642Z,13.62
2022-10-20T17:39:15.443Z,13.58
2022-10-20T17:41:44.987Z,13.63
2022-10-20T17:44:20.562Z,13.53
2022-10-20T17:46:49.500Z,13.46
2022-10-20T17:49:23.388Z,13.34
2022-10-20T17:51:51.496Z,13.39
2022-10-20T17:54:20.425Z,13.38
2022-10-20T17:56:52.367Z,13.53
2022-10-20T17:59:20.816Z,13.48
2022-10-20T18:01:49.103Z,13.55
2022-10-20T18:04:18.342Z,13.45
2022-10-20T18:06:46.886Z,13.38
2022-10-20T18:09:16.122Z,13.32
2022-10-20T18:11:45.140Z,13.39
2022-10-20T18:14:15.110Z,13.53
2022-10-20T18:16:46.081Z,13.41
2022-10-20T18:19:14.900Z,13.33
2022-10-20T18:21:43.469Z,13.32
2022-10-20T18:24:12.807Z,13.26
2022-10-20T18:26:40.968Z,13.26
2022-10-20T18:29:10.306Z,13.39
2022-10-20T18:31:41.030Z,13.37
2022-10-20T18:34:18.589Z,13.34
2022-10-20T18:36:47.710Z,13.20
2022-10-20T18:39:17.028Z,13.10
2022-10-20T18:41:46.323Z,12.99
2022-10-20T18:44:16.123Z,12.98
2022-10-20T18:46:46.895Z,13.00
2022-10-20T18:49:16.800Z,13.04
2022-10-20T18:51:46.108Z,13.33
2022-10-20T18:54:14.324Z,13.26
2022-10-20T18:56:42.909Z,13.22
2022-10-20T18:59:14.005Z,13.12
2022-10-20T19:01:42.528Z,13.05
2022-10-20T19:04:14.155Z,13.04
2022-10-20T19:06:43.480Z,12.98
2022-10-20T19:09:14.576Z,12.98
2022-10-20T19:11:42.956Z,12.92
2022-10-20T19:14:11.543Z,12.97
2022-10-20T19:16:40.176Z,12.98
2022-10-20T19:19:09.777Z,13.08
2022-10-20T19:21:40.153Z,13.22
2022-10-20T19:24:09.613Z,13.26
2022-10-20T19:26:39.649Z,13.12
2022-10-20T19:29:09.411Z,13.34
2022-10-20T19:31:40.252Z,13.24
2022-10-20T19:34:09.799Z,13.38
2022-10-20T19:36:40.068Z,13.36
2022-10-20T19:39:10.173Z,13.46
2022-10-20T19:41:38.944Z,13.43
2022-10-20T19:44:08.328Z,13.46
2022-10-20T19:46:42.663Z,13.53
2022-10-20T19:49:10.822Z,13.61
2022-10-20T19:51:40.513Z,13.73
2022-10-20T19:54:09.213Z,13.79
2022-10-20T19:56:37.195Z,13.77
2022-10-20T19:59:06.481Z,13.83
2022-10-20T20:01:35.633Z,13.81
2022-10-20T20:04:04.359Z,13.67
2022-10-20T20:06:32.696Z,13.59
2022-10-20T20:09:03.799Z,13.57
2022-10-20T20:11:32.663Z,13.42
2022-10-20T20:14:02.967Z,13.37
2022-10-20T20:16:31.611Z,13.25
2022-10-20T20:19:00.387Z,13.24
2022-10-20T20:21:28.705Z,13.31
2022-10-20T20:23:59.774Z,13.16
2022-10-20T20:26:31.243Z,13.14
2022-10-20T20:29:00.229Z,13.12
2022-10-20T20:31:29.318Z,13.00
2022-10-20T20:33:58.602Z,12.96
2022-10-20T20:36:28.121Z,12.89
2022-10-20T20:38:58.155Z,13.00
2022-10-20T20:41:27.530Z,12.94
2022-10-20T20:43:57.027Z,13.06
2022-10-20T20:46:26.810Z,13.00
2022-10-20T20:48:54.929Z,13.23
2022-10-20T20:51:22.991Z,13.12
2022-10-20T20:53:50.915Z,13.18
2022-10-20T20:56:21.866Z,13.30
2022-10-20T20:58:55.050Z,13.39
2022-10-20T21:01:27.250Z,13.51
2022-10-20T21:03:56.604Z,13.61
2022-10-20T21:06:33.172Z,13.71
2022-10-20T21:09:02.300Z,13.78
2022-10-20T21:11:30.464Z,13.74
2022-10-20T21:13:59.203Z,13.89
2022-10-20T21:16:30.158Z,14.14
2022-10-20T21:19:00.122Z,14.18
2022-10-20T21:21:29.110Z,14.25
2022-10-20T21:23:57.859Z,14.26
2022-10-20T21:26:26.045Z,14.29
2022-10-20T21:28:54.441Z,14.25
2022-10-20T21:31:25.056Z,14.36
2022-10-20T21:33:55.927Z,14.30
2022-10-20T21:36:24.192Z,14.31
2022-10-20T21:38:52.499Z,14.38
2022-10-20T21:41:21.264Z,14.36
2022-10-20T21:43:50.510Z,14.16
2022-10-20T21:46:19.699Z,14.35
2022-10-20T21:48:48.557Z,14.35
2022-10-20T21:51:19.920Z,14.46
2022-10-20T21:53:51.846Z,14.47
2022-10-20T21:56:23.840Z,14.41
2022-10-20T21:58:51.917Z,14.54
2022-10-20T22:01:20.786Z,14.49
2022-10-20T22:03:49.547Z,14.43
2022-10-20T22:06:20.266Z,14.46
2022-10-20T22:08:49.538Z,14.64
2022-10-20T22:11:19.243Z,14.71
2022-10-20T22:13:47.621Z,14.62
2022-10-20T22:16:17.283Z,14.60
2022-10-20T22:18:45.518Z,14.60
2022-10-20T22:21:15.515Z,14.72
2022-10-20T22:23:45.549Z,14.69
2022-10-20T22:26:13.501Z,14.71
2022-10-20T22:28:41.544Z,14.70
2022-10-20T22:31:11.038Z,14.78
2022-10-20T22:33:40.719Z,14.76
2022-10-20T22:36:08.903Z,14.72
2022-10-20T22:38:36.859Z,14.85
2022-10-20T22:41:06.169Z,14.93
2022-10-20T22:43:34.159Z,15.00
2022-10-20T22:46:02.264Z,14.95
2022-10-20T22:48:30.256Z,15.01
2022-10-20T22:50:58.208Z,15.05
2022-10-20T22:53:26.558Z,15.10
2022-10-20T22:55:54.471Z,15.00
2022-10-20T22:58:24.013Z,15.13
2022-10-20T23:00:51.980Z,15.21
2022-10-20T23:03:19.948Z,15.29
2022-10-20T23:05:47.863Z,15.35
2022-10-20T23:08:15.733Z,15.31
2022-10-20T23:10:43.803Z,15.36
2022-10-20T23:13:11.774Z,15.42
2022-10-20T23:15:41.017Z,15.39
2022-10-20T23:18:08.886Z,15.42
2022-10-20T23:20:36.793Z,15.48
2022-10-20T23:23:04.850Z,15.47
2022-10-20T23:25:32.756Z,15.55
2022-10-20T23:28:00.697Z,15.60
2022-10-20T23:30:28.635Z,15.58
2022-10-20T23:32:57.982Z,15.60
2022-10-20T23:35:26.131Z,15.65
2022-10-20T23:37:54.093Z,15.67
2022-10-20T23:40:21.964Z,15.68
2022-10-20T23:42:49.965Z,15.59
2022-10-20T23:45:17.921Z,15.61
2022-10-20T23:47:45.992Z,15.62
2022-10-20T23:50:16.536Z,15.58
2022-10-20T23:52:44.484Z,15.57
2022-10-20T23:55:15.381Z,15.60
2022-10-20T23:57:43.867Z,15.53
